createdAt,value
2019-01-18T00:00:43.853Z,3.17
2019-01-18T00:05:45.658Z,2.70
2019-01-18T00:10:47.442Z,2.50
2019-01-18T00:15:49.203Z,3.20
2019-01-18T00:20:51.582Z,2.57
2019-01-18T00:25:53.383Z,2.80
2019-01-18T00:30:55.189Z,3.37
2019-01-18T00:35:56.941Z,3.60
2019-01-18T00:40:58.795Z,4.80
2019-01-18T00:46:00.705Z,3.07
2019-01-18T00:51:02.505Z,2.53
2019-01-18T00:56:04.259Z,3.20
2019-01-18T01:01:06.110Z,1.73
2019-01-18T01:06:07.898Z,2.43
2019-01-18T01:11:09.703Z,2.50
2019-01-18T01:16:11.410Z,2.40
2019-01-18T01:21:13.511Z,2.10
2019-01-18T01:26:15.212Z,2.27
2019-01-18T01:31:17.014Z,2.50
2019-01-18T01:36:18.806Z,1.87
2019-01-18T01:41:20.567Z,2.40
2019-01-18T01:46:22.366Z,2.50
2019-01-18T01:51:24.637Z,2.30
2019-01-18T01:56:26.432Z,2.40
2019-01-18T02:01:28.649Z,1.80
2019-01-18T02:06:30.396Z,2.33
2019-01-18T02:11:32.252Z,1.80
2019-01-18T02:16:33.951Z,2.40
2019-01-18T02:21:35.805Z,4.50
2019-01-18T02:26:37.559Z,2.10
2019-01-18T02:31:39.360Z,1.40
2019-01-18T02:36:41.166Z,1.90
2019-01-18T02:41:42.967Z,2.80
2019-01-18T02:46:45.081Z,1.87
2019-01-18T02:51:46.883Z,1.83
2019-01-18T02:56:48.690Z,1.33
2019-01-18T03:01:50.491Z,1.43
2019-01-18T03:06:52.827Z,1.60
2019-01-18T03:11:54.611Z,2.17
2019-01-18T03:16:56.720Z,2.00
2019-01-18T03:21:59.341Z,2.10
2019-01-18T03:27:01.150Z,1.23
2019-01-18T03:32:03.154Z,1.60
2019-01-18T03:37:04.960Z,1.40
2019-01-18T03:42:06.756Z,1.90
2019-01-18T03:47:08.503Z,1.70
2019-01-18T03:52:10.264Z,1.70
2019-01-18T03:57:12.066Z,2.43
2019-01-18T04:02:13.835Z,1.53
2019-01-18T04:07:15.673Z,1.27
2019-01-18T04:12:17.471Z,1.47
2019-01-18T04:17:19.170Z,2.27
2019-01-18T04:22:23.442Z,2.50
2019-01-18T04:27:25.232Z,1.70
2019-01-18T04:32:29.291Z,2.00
2019-01-18T04:37:30.971Z,1.67
2019-01-18T04:42:33.106Z,1.40
2019-01-18T04:47:34.843Z,1.47
2019-01-18T04:52:36.614Z,2.03
2019-01-18T04:57:38.749Z,1.50
2019-01-18T05:02:40.496Z,1.70
2019-01-18T05:07:42.326Z,1.60
2019-01-18T05:12:44.448Z,1.83
2019-01-18T05:17:46.184Z,1.97
2019-01-18T05:22:49.171Z,1.20
2019-01-18T05:27:50.872Z,1.60
2019-01-18T05:32:52.661Z,1.73
2019-01-18T05:37:54.780Z,1.33
2019-01-18T05:42:56.565Z,1.50
2019-01-18T05:47:58.306Z,2.40
2019-01-18T05:53:02.377Z,1.57
2019-01-18T05:58:04.426Z,1.70
2019-01-18T06:03:06.239Z,2.10
2019-01-18T06:08:07.986Z,1.83
2019-01-18T06:13:10.552Z,1.60
2019-01-18T06:18:12.279Z,2.10
2019-01-18T06:23:14.344Z,2.73
2019-01-18T06:28:17.591Z,2.00
2019-01-18T06:33:19.338Z,2.50
2019-01-18T06:38:21.127Z,2.33
2019-01-18T06:43:23.348Z,1.33
2019-01-18T06:48:25.712Z,1.80
2019-01-18T06:53:27.473Z,2.00
2019-01-18T06:58:29.248Z,1.40
2019-01-18T07:03:30.970Z,1.83
2019-01-18T07:08:32.704Z,1.60
2019-01-18T07:13:34.814Z,1.37
2019-01-18T07:18:36.571Z,1.70
2019-01-18T07:23:38.343Z,1.60
2019-01-18T07:28:39.935Z,1.97
2019-01-18T07:33:41.593Z,2.03
2019-01-18T07:38:43.328Z,1.27
2019-01-18T07:43:45.501Z,1.73
2019-01-18T07:48:47.185Z,1.93
2019-01-18T07:53:49.781Z,1.50
2019-01-18T07:58:51.554Z,1.87
2019-01-18T08:03:53.337Z,1.47
2019-01-18T08:08:55.119Z,2.33
2019-01-18T08:13:56.844Z,2.20
2019-01-18T08:18:58.494Z,2.90
2019-01-18T08:24:00.260Z,2.43
2019-01-18T08:29:02.032Z,2.90
2019-01-18T08:34:03.781Z,2.37
2019-01-18T08:39:07.237Z,1.80
2019-01-18T08:44:09.522Z,2.23
2019-01-18T08:49:11.295Z,2.30
2019-01-18T08:54:13.074Z,4.20
2019-01-18T08:59:14.856Z,1.93
2019-01-18T09:04:16.600Z,1.67
2019-01-18T09:09:18.433Z,2.43
2019-01-18T09:14:20.217Z,2.10
2019-01-18T09:19:22.303Z,2.30
2019-01-18T09:24:24.114Z,2.60
2019-01-18T09:29:25.865Z,2.17
2019-01-18T09:34:27.608Z,2.53
2019-01-18T09:39:29.420Z,2.20
2019-01-18T09:44:31.194Z,3.13
2019-01-18T09:49:33.405Z,2.77
2019-01-18T09:54:35.140Z,6.37
2019-01-18T09:59:38.388Z,4.27
2019-01-18T10:04:40.663Z,3.70
2019-01-18T10:09:42.407Z,5.23
2019-01-18T10:14:44.213Z,3.50
2019-01-18T10:19:46.246Z,4.50
2019-01-18T10:24:49.107Z,5.97
2019-01-18T10:29:52.910Z,3.77
2019-01-18T10:35:06.891Z,4.73
2019-01-18T10:40:10.936Z,4.17
2019-01-18T10:45:15.153Z,3.73
2019-01-18T10:50:27.272Z,4.20
2019-01-18T10:55:29.452Z,4.43
2019-01-18T11:00:32.761Z,3.47
2019-01-18T11:05:34.488Z,4.43
2019-01-18T11:10:36.235Z,4.07
2019-01-18T11:15:38.370Z,4.57
2019-01-18T11:20:46.603Z,3.90
2019-01-18T11:25:52.930Z,3.33
2019-01-18T11:30:55.039Z,3.40
2019-01-18T11:35:59.475Z,4.80
2019-01-18T11:41:01.683Z,4.93
2019-01-18T11:46:03.407Z,3.20
2019-01-18T11:51:05.927Z,4.10
2019-01-18T11:56:08.139Z,4.30
2019-01-18T12:01:09.883Z,3.53
2019-01-18T12:06:12.444Z,3.30
2019-01-18T12:11:19.951Z,5.00
2019-01-18T12:16:21.876Z,5.97
2019-01-18T12:21:23.859Z,4.20
2019-01-18T12:26:25.740Z,4.43
2019-01-18T12:31:27.827Z,3.80
2019-01-18T12:36:29.591Z,4.50
2019-01-18T12:41:31.351Z,4.30
2019-01-18T12:46:33.502Z,3.93
2019-01-18T12:51:35.620Z,3.30
2019-01-18T12:56:37.515Z,4.53
2019-01-18T13:01:39.260Z,3.90
2019-01-18T13:06:41.028Z,4.67
2019-01-18T13:11:42.774Z,4.20
2019-01-18T13:16:44.627Z,3.27
2019-01-18T13:21:47.315Z,3.83
2019-01-18T13:26:51.598Z,4.53
2019-01-18T13:31:53.421Z,4.70
2019-01-18T13:36:55.218Z,2.80
2019-01-18T13:41:57.634Z,3.13
2019-01-18T13:46:59.433Z,3.83
2019-01-18T13:52:01.233Z,4.77
2019-01-18T13:57:03.963Z,5.07
2019-01-18T14:02:06.013Z,4.07
2019-01-18T14:07:07.866Z,3.47
2019-01-18T14:12:09.662Z,3.70
2019-01-18T14:17:11.462Z,3.90
2019-01-18T14:22:15.688Z,3.70
2019-01-18T14:27:19.236Z,2.97
2019-01-18T14:32:20.992Z,2.90
2019-01-18T14:37:22.819Z,3.47
2019-01-18T14:42:24.589Z,3.80
2019-01-18T14:47:26.531Z,3.00
2019-01-18T14:52:28.561Z,3.63
2019-01-18T14:57:31.879Z,3.07
2019-01-18T15:02:34.087Z,4.73
2019-01-18T15:07:35.836Z,3.40
2019-01-18T15:12:37.994Z,5.10
2019-01-18T15:17:44.548Z,3.50
2019-01-18T15:22:46.299Z,3.30
2019-01-18T15:27:48.922Z,3.73
2019-01-18T15:32:51.865Z,4.20
2019-01-18T15:37:53.649Z,4.07
2019-01-18T15:42:57.220Z,8.63
2019-01-18T15:47:59.002Z,11.00
2019-01-18T15:53:00.918Z,7.73
2019-01-18T15:58:04.104Z,7.90
2019-01-18T16:03:06.317Z,4.83
2019-01-18T16:08:08.645Z,4.93
2019-01-18T16:13:10.391Z,5.10
2019-01-18T16:18:18.598Z,4.17
2019-01-18T16:23:21.863Z,9.33
2019-01-18T16:28:25.231Z,5.70
2019-01-18T16:33:27.384Z,6.73
2019-01-18T16:38:29.559Z,5.93
2019-01-18T16:43:32.741Z,5.10
2019-01-18T16:48:34.775Z,5.30
2019-01-18T16:53:36.576Z,6.17
2019-01-18T16:58:38.736Z,5.17
2019-01-18T17:03:40.484Z,5.00
2019-01-18T17:08:42.296Z,5.33
2019-01-18T17:13:44.052Z,4.60
2019-01-18T17:18:45.899Z,4.00
2019-01-18T17:23:47.601Z,4.60
2019-01-18T17:28:49.819Z,3.90
2019-01-18T17:33:51.618Z,6.03
2019-01-18T17:39:18.306Z,4.93
2019-01-18T17:44:24.469Z,4.40
2019-01-18T17:49:36.256Z,4.83
2019-01-18T17:54:41.975Z,4.57
2019-01-18T18:00:25.750Z,6.07
2019-01-18T18:05:34.710Z,5.47
2019-01-18T18:10:57.477Z,5.03
2019-01-18T18:16:24.196Z,5.50
2019-01-18T18:21:32.421Z,4.13
2019-01-18T18:26:49.997Z,4.63
2019-01-18T18:32:12.488Z,6.43
2019-01-18T18:37:27.124Z,5.30
2019-01-18T18:42:44.666Z,6.17
2019-01-18T18:48:14.220Z,6.27
2019-01-18T18:53:26.214Z,6.17
2019-01-18T18:58:38.036Z,5.80
2019-01-18T19:03:59.015Z,5.57
2019-01-18T19:09:22.889Z,6.40
2019-01-18T19:14:46.277Z,5.40
2019-01-18T19:20:00.570Z,4.70
2019-01-18T19:25:08.723Z,11.33
2019-01-18T19:30:25.893Z,7.37
2019-01-18T19:35:35.371Z,6.17
2019-01-18T19:40:41.213Z,6.43
2019-01-18T19:45:56.193Z,8.57
2019-01-18T19:51:13.256Z,5.00
2019-01-18T19:56:27.871Z,5.07
2019-01-18T20:01:53.340Z,4.40
2019-01-18T20:07:05.154Z,6.00
2019-01-18T20:12:10.974Z,4.70
2019-01-18T20:17:16.364Z,5.23
2019-01-18T20:22:27.709Z,4.10
2019-01-18T20:33:39.364Z,5.30
2019-01-18T20:38:47.157Z,5.80
2019-01-18T20:44:08.225Z,3.27
2019-01-18T20:49:16.743Z,4.63
2019-01-18T20:54:31.419Z,3.77
2019-01-18T20:59:52.991Z,6.50
2019-01-18T21:04:58.773Z,3.93
2019-01-18T21:10:19.992Z,3.90
2019-01-18T21:15:45.731Z,4.93
2019-01-18T21:21:12.307Z,5.83
2019-01-18T21:26:24.082Z,5.53
2019-01-18T21:31:41.771Z,8.17
2019-01-18T21:37:14.036Z,4.30
2019-01-18T21:42:36.519Z,4.30
2019-01-18T21:48:11.915Z,4.87
2019-01-18T21:53:23.479Z,4.87
2019-01-18T21:58:35.286Z,3.63
2019-01-18T22:03:41.254Z,6.60
2019-01-18T22:14:27.277Z,5.47
2019-01-18T22:19:35.870Z,4.80
2019-01-18T22:25:16.519Z,5.50
2019-01-18T22:30:25.401Z,5.57
2019-01-18T22:35:32.120Z,4.10
2019-01-18T22:40:48.925Z,4.67
2019-01-18T22:45:59.322Z,4.60
2019-01-18T22:51:21.283Z,4.53
2019-01-18T22:56:33.120Z,4.07
2019-01-18T23:01:50.501Z,3.90
2019-01-18T23:07:02.198Z,3.70
2019-01-18T23:12:28.482Z,4.30
2019-01-18T23:17:40.295Z,3.53
2019-01-18T23:22:57.972Z,3.27
2019-01-18T23:28:09.471Z,2.80
2019-01-18T23:33:26.734Z,4.40
2019-01-18T23:38:55.178Z,3.70
2019-01-18T23:44:03.740Z,4.17
2019-01-18T23:49:24.392Z,3.20
2019-01-18T23:54:35.621Z,3.20
2019-01-18T23:59:59.496Z,3.10
